Terminal Aerodrome Forecast
Issued by NWS North Platte, NE

Home | Current Version | Previous Version | Graphics & Text | Print | Product List | Glossary On
Versions: 1 2 3 4 5 6 7 8 9 10 11 12 13
000
FTUS43 KLBF 202338
TAFVTN
TAF
KVTN 202338Z 2100/2124 31012G19KT P6SM SKC
     FM210100 26006KT P6SM SKC
     FM210400 21006KT P6SM FEW250
     FM210900 23008KT P6SM FEW250 WS010/26045KT
     FM211500 24012KT P6SM FEW250
     FM211800 26017G28KT P6SM FEW250=

USA.gov is the U.S. government's official web portal to all federal, state and local government web resources and services.